Time;durP1;ratioP1;P1;durP2;ratioP2;P2;SDS_P1;SDS_P2;PMS_P1;PMS_P2;Temp;Humidity;BMP_temperature;BMP_pressure;BME280_temperature;BME280_humidity;BME280_pressure;Samples;Min_cycle;Max_cycle;Signal;HPM_P1;HPM_P2
2021/04/25 00:00:31;;;;;;;14.45;7.70;;;;;;;7.97;54.54;96470.44;5033013;28;20053;-66
2021/04/25 00:02:57;;;;;;;12.13;7.30;;;;;;;7.98;55.77;96464.72;5032774;28;20065;-66
2021/04/25 00:05:23;;;;;;;12.38;7.38;;;;;;;7.99;55.99;96462.84;5032672;28;20171;-66
2021/04/25 00:07:49;;;;;;;12.77;7.53;;;;;;;8.00;53.50;96459.81;5032340;28;20050;-66
2021/04/25 00:10:19;;;;;;;14.18;7.50;;;;;;;8.02;53.29;96463.00;5033092;28;20043;-66
2021/04/25 00:12:45;;;;;;;13.65;7.57;;;;;;;8.05;53.31;96459.72;5031373;28;20071;-66
2021/04/25 00:15:14;;;;;;;12.63;7.35;;;;;;;8.06;54.57;96466.75;5033077;28;20053;-66
2021/04/25 00:17:40;;;;;;;17.55;7.35;;;;;;;8.02;54.70;96463.00;5031944;28;20053;-65
2021/04/25 00:20:08;;;;;;;14.02;7.55;;;;;;;8.00;55.00;96462.53;5032658;28;20045;-66
2021/04/25 00:22:34;;;;;;;12.05;6.93;;;;;;;7.96;54.64;96468.84;5032393;28;20057;-66
2021/04/25 00:25:00;;;;;;;13.55;7.25;;;;;;;7.94;55.09;96471.84;5034906;28;20049;-66
2021/04/25 00:27:27;;;;;;;14.65;7.63;;;;;;;7.89;54.84;96461.09;5032451;28;20103;-66
2021/04/25 00:29:54;;;;;;;12.02;7.13;;;;;;;7.90;55.04;96457.28;5031921;28;20053;-66
2021/04/25 00:32:20;;;;;;;13.43;6.80;;;;;;;7.87;54.64;96460.56;5032410;28;20061;-66
2021/04/25 00:34:47;;;;;;;10.52;6.63;;;;;;;7.84;54.39;96461.19;5031704;28;20049;-66
2021/04/25 00:37:13;;;;;;;11.23;7.28;;;;;;;7.79;54.52;96455.84;5032630;28;20072;-66
2021/04/25 00:39:39;;;;;;;15.13;7.15;;;;;;;7.75;54.38;96452.13;5031753;28;20132;-66
2021/04/25 00:42:05;;;;;;;19.50;7.57;;;;;;;7.71;54.51;96454.59;5032156;28;20057;-66
2021/04/25 00:44:32;;;;;;;14.18;6.93;;;;;;;7.69;54.33;96448.69;5031761;28;20049;-66
2021/04/25 00:46:58;;;;;;;15.40;7.80;;;;;;;7.68;54.79;96452.50;5032546;28;20056;-66
2021/04/25 00:49:24;;;;;;;13.60;6.95;;;;;;;7.64;55.46;96451.47;5031834;28;20045;-66
2021/04/25 00:51:50;;;;;;;14.35;6.68;;;;;;;7.66;55.04;96453.88;5032309;28;20516;-66
2021/04/25 00:54:16;;;;;;;14.38;7.63;;;;;;;7.65;54.74;96447.66;5032210;28;20053;-66
2021/04/25 00:56:42;;;;;;;10.70;6.32;;;;;;;7.67;55.04;96450.06;5033557;28;20046;-66
2021/04/25 00:59:08;;;;;;;11.20;6.60;;;;;;;7.68;55.01;96435.44;5032071;28;20408;-66
2021/04/25 01:01:35;;;;;;;13.13;6.50;;;;;;;7.68;55.34;96436.25;5031366;28;20132;-66
2021/04/25 01:04:01;;;;;;;16.77;6.82;;;;;;;7.66;55.32;96440.34;5032221;28;20056;-67
2021/04/25 01:06:27;;;;;;;13.98;6.63;;;;;;;7.66;55.22;96443.84;5031163;28;20128;-66
2021/04/25 01:08:53;;;;;;;12.85;7.45;;;;;;;7.66;54.91;96440.34;5032264;28;20511;-66
2021/04/25 01:11:19;;;;;;;13.73;6.78;;;;;;;7.64;55.26;96448.78;5030924;28;20045;-66
2021/04/25 01:13:50;;;;;;;11.65;6.28;;;;;;;7.65;54.78;96447.66;5031919;28;20071;-66
2021/04/25 01:16:16;;;;;;;12.88;6.85;;;;;;;7.67;55.06;96450.06;5031289;28;20042;-65
2021/04/25 01:18:42;;;;;;;14.10;6.75;;;;;;;7.67;54.97;96452.78;5031291;28;20411;-65
2021/04/25 01:21:09;;;;;;;14.93;7.45;;;;;;;7.69;54.93;96447.88;5031662;28;20049;-66
2021/04/25 01:23:35;;;;;;;11.35;6.72;;;;;;;7.68;55.55;96451.72;5030617;28;20049;-65
2021/04/25 01:26:01;;;;;;;12.15;6.93;;;;;;;7.65;56.12;96452.28;5031694;28;20046;-66
2021/04/25 01:28:28;;;;;;;14.57;7.25;;;;;;;7.62;56.48;96452.88;5030144;28;20076;-65
2021/04/25 01:30:55;;;;;;;14.18;6.60;;;;;;;7.61;56.64;96443.13;5031940;28;20054;-65
2021/04/25 01:33:21;;;;;;;15.23;7.13;;;;;;;7.53;56.41;96434.59;5030529;28;20053;-66
2021/04/25 01:35:47;;;;;;;11.73;6.88;;;;;;;7.46;56.65;96444.19;5031637;28;20053;-65
2021/04/25 01:38:13;;;;;;;11.73;7.47;;;;;;;7.41;57.05;96450.47;5030668;28;20048;-66
2021/04/25 01:40:39;;;;;;;12.52;7.80;;;;;;;7.33;56.97;96451.16;5031037;28;20056;-66
2021/04/25 01:43:05;;;;;;;15.23;8.10;;;;;;;7.26;57.51;96456.97;5030774;28;20049;-66
2021/04/25 01:45:31;;;;;;;13.88;7.40;;;;;;;7.23;57.82;96456.75;5030812;28;20069;-66
2021/04/25 01:47:59;;;;;;;17.33;7.53;;;;;;;7.20;57.81;96452.69;5031319;28;20060;-66
2021/04/25 01:50:27;;;;;;;14.45;7.90;;;;;;;7.20;57.59;96451.91;5030078;28;20049;-66
2021/04/25 01:52:54;;;;;;;19.08;8.57;;;;;;;7.21;57.63;96453.53;5031536;28;20045;-65
2021/04/25 01:55:21;;;;;;;13.32;7.63;;;;;;;7.22;57.66;96455.13;5038441;28;20064;-66
2021/04/25 01:57:48;;;;;;;13.77;7.57;;;;;;;7.27;57.26;96457.75;5051416;28;20227;-66
2021/04/25 02:00:19;;;;;;;14.00;8.02;;;;;;;7.27;56.99;96450.44;5046903;28;20646;-66
2021/04/25 02:02:46;;;;;;;10.50;7.43;;;;;;;7.31;57.51;96459.59;5040474;28;20045;-65
2021/04/25 02:05:12;;;;;;;15.85;7.40;;;;;;;7.36;57.72;96450.59;5040240;28;20045;-66
2021/04/25 02:07:38;;;;;;;13.48;8.00;;;;;;;7.39;57.78;96455.41;5040754;28;20682;-66
2021/04/25 02:10:05;;;;;;;14.00;8.05;;;;;;;7.47;57.16;96457.47;5040247;28;20715;-66
2021/04/25 02:12:32;;;;;;;12.80;7.70;;;;;;;7.53;57.63;96456.25;5040456;28;20114;-66
2021/04/25 02:14:59;;;;;;;15.02;8.10;;;;;;;7.55;57.04;96445.94;5040780;28;20045;-66
2021/04/25 02:17:25;;;;;;;16.35;8.23;;;;;;;7.58;56.99;96464.31;5039731;28;20535;-66
2021/04/25 02:19:50;;;;;;;13.05;7.95;;;;;;;7.60;57.28;96461.31;5039432;28;20041;-66
2021/04/25 02:22:16;;;;;;;16.10;9.07;;;;;;;7.63;57.74;96457.22;5039884;28;20044;-66
2021/04/25 02:24:42;;;;;;;13.82;7.65;;;;;;;7.65;57.99;96450.38;5039564;28;20041;-66
2021/04/25 02:27:08;;;;;;;13.23;7.72;;;;;;;7.59;58.17;96444.25;5051415;28;20105;-66
2021/04/25 02:29:35;;;;;;;14.23;8.18;;;;;;;7.57;58.13;96454.59;5080136;28;20044;-66
2021/04/25 02:32:01;;;;;;;16.15;8.25;;;;;;;7.57;57.31;96446.44;5079679;28;20048;-66
2021/04/25 02:34:27;;;;;;;13.80;7.47;;;;;;;7.57;57.44;96451.06;5079859;28;20082;-66
2021/04/25 02:36:53;;;;;;;13.45;8.18;;;;;;;7.54;57.79;96441.63;5079349;28;20044;-66
2021/04/25 02:39:19;;;;;;;11.27;7.85;;;;;;;7.53;58.20;96453.56;5080147;28;20054;-66
2021/04/25 02:41:45;;;;;;;20.00;9.63;;;;;;;7.55;58.62;96455.97;5080244;28;20647;-65
2021/04/25 02:44:11;;;;;;;17.30;9.02;;;;;;;7.50;58.53;96462.25;5079652;28;20048;-66
2021/04/25 02:46:38;;;;;;;17.08;8.52;;;;;;;7.42;59.13;96454.81;5079637;28;20132;-66
2021/04/25 02:49:04;;;;;;;14.93;9.40;;;;;;;7.30;59.08;96457.16;5079307;28;20110;-66
2021/04/25 02:51:30;;;;;;;15.82;9.55;;;;;;;7.20;59.49;96463.53;5079371;28;20052;-66
2021/04/25 02:53:56;;;;;;;15.82;10.20;;;;;;;7.18;59.70;96462.22;5079754;28;20048;-66
2021/04/25 02:56:22;;;;;;;20.55;9.88;;;;;;;7.15;59.80;96460.09;5079563;28;20055;-65
2021/04/25 02:58:48;;;;;;;18.88;11.02;;;;;;;7.14;59.56;96461.19;5079720;28;20044;-66
2021/04/25 03:01:14;;;;;;;22.33;10.57;;;;;;;7.12;59.67;96458.00;5079419;28;20048;-65
2021/04/25 03:03:41;;;;;;;17.63;9.52;;;;;;;7.14;59.63;96450.38;5079451;28;20690;-66
2021/04/25 03:06:07;;;;;;;17.42;10.32;;;;;;;7.13;59.93;96457.69;5078948;28;20540;-66
2021/04/25 03:08:32;;;;;;;18.60;10.00;;;;;;;7.13;59.66;96452.28;5079027;28;20047;-66
2021/04/25 03:10:58;;;;;;;18.52;10.98;;;;;;;7.15;59.49;96443.84;5079334;28;20040;-66
2021/04/25 03:13:24;;;;;;;17.98;10.57;;;;;;;7.17;59.44;96441.66;5079582;28;20549;-66
2021/04/25 03:15:50;;;;;;;18.55;10.50;;;;;;;7.20;59.26;96441.06;5079569;28;20114;-66
2021/04/25 03:18:16;;;;;;;17.95;11.05;;;;;;;7.23;59.19;96440.50;5079562;28;20040;-66
2021/04/25 03:20:43;;;;;;;18.02;11.40;;;;;;;7.25;59.33;96441.00;5078957;28;20048;-66
2021/04/25 03:23:09;;;;;;;17.83;10.68;;;;;;;7.29;58.93;96450.13;5079358;28;20048;-66
2021/04/25 03:25:35;;;;;;;17.35;11.05;;;;;;;7.30;58.95;96449.03;5079604;28;20184;-66
2021/04/25 03:28:02;;;;;;;18.65;11.15;;;;;;;7.32;59.05;96453.06;5079460;28;20587;-66
2021/04/25 03:30:28;;;;;;;19.85;11.52;;;;;;;7.34;58.99;96450.06;5079685;28;20139;-65
2021/04/25 03:32:54;;;;;;;21.13;11.23;;;;;;;7.32;59.15;96444.16;5079227;28;20062;-66
2021/04/25 03:35:20;;;;;;;18.55;12.15;;;;;;;7.31;59.24;96447.97;5079505;28;20725;-65
2021/04/25 03:37:47;;;;;;;19.75;11.25;;;;;;;7.29;59.57;96455.56;5079337;28;20103;-66
2021/04/25 03:40:15;;;;;;;19.85;11.38;;;;;;;7.22;59.52;96455.13;5079487;28;20048;-66
2021/04/25 03:42:41;;;;;;;15.02;10.45;;;;;;;7.07;59.64;96456.97;5079443;28;20058;-66
2021/04/25 03:45:13;;;;;;;19.52;12.02;;;;;;;6.98;60.10;96461.41;5078992;28;20080;-65
2021/04/25 03:47:39;;;;;;;18.23;10.85;;;;;;;6.90;60.24;96453.97;5079489;28;20048;-66
2021/04/25 03:50:06;;;;;;;19.00;11.80;;;;;;;6.84;60.67;96452.44;5082974;28;20047;-66
2021/04/25 03:52:32;;;;;;;19.88;11.57;;;;;;;6.81;61.07;96447.59;5083014;28;20058;-66
2021/04/25 03:54:59;;;;;;;18.50;11.13;;;;;;;6.79;61.31;96452.50;5082363;28;20044;-65
2021/04/25 03:57:25;;;;;;;21.98;11.57;;;;;;;6.77;61.17;96449.25;5082596;28;20524;-65
2021/04/25 03:59:51;;;;;;;22.48;11.52;;;;;;;6.80;61.78;96443.28;5082506;28;20040;-65
2021/04/25 04:02:17;;;;;;;19.35;12.48;;;;;;;6.83;61.83;96447.28;5082547;28;20139;-66
2021/04/25 04:04:49;;;;;;;21.63;11.77;;;;;;;6.84;62.20;96457.00;5082441;28;20552;-65
2021/04/25 04:07:15;;;;;;;17.35;11.60;;;;;;;6.86;61.37;96450.22;5082090;28;20051;-65
2021/04/25 04:09:41;;;;;;;22.05;12.15;;;;;;;6.85;61.37;96450.53;5082441;28;20043;-66
2021/04/25 04:12:08;;;;;;;20.65;12.25;;;;;;;6.84;61.14;96449.72;5082199;28;20052;-65
2021/04/25 04:14:34;;;;;;;23.30;12.82;;;;;;;6.80;61.41;96444.06;5082563;28;20060;-66
2021/04/25 04:17:00;;;;;;;21.20;12.32;;;;;;;6.79;61.80;96453.28;5082206;28;20048;-66
2021/04/25 04:19:26;;;;;;;29.02;13.48;;;;;;;6.80;62.15;96448.69;5082519;28;20040;-66
2021/04/25 04:21:52;;;;;;;21.05;13.85;;;;;;;6.79;62.25;96450.59;5082361;28;20476;-66
2021/04/25 04:24:18;;;;;;;23.15;14.68;;;;;;;6.78;62.40;96445.44;5082185;28;20656;-66
2021/04/25 04:26:44;;;;;;;27.02;14.77;;;;;;;6.79;62.53;96442.47;5082281;27;20052;-66
2021/04/25 04:29:11;;;;;;;25.67;14.75;;;;;;;6.84;62.67;96449.72;5082044;28;20051;-65
2021/04/25 04:31:37;;;;;;;21.30;14.23;;;;;;;6.91;61.96;96443.94;5082064;28;20522;-65
2021/04/25 04:34:03;;;;;;;23.92;14.35;;;;;;;6.95;61.22;96450.38;5082210;28;20044;-66
2021/04/25 04:36:29;;;;;;;22.77;14.55;;;;;;;6.96;61.99;96446.56;5082350;28;20085;-66
2021/04/25 04:38:55;;;;;;;21.85;14.80;;;;;;;6.98;62.08;96456.00;5082108;28;20119;-66
2021/04/25 04:41:21;;;;;;;24.77;14.18;;;;;;;7.00;62.44;96459.25;5082008;28;20138;-66
2021/04/25 04:43:47;;;;;;;24.30;14.32;;;;;;;7.00;62.21;96470.06;5081852;28;20048;-66
2021/04/25 04:46:14;;;;;;;23.35;14.60;;;;;;;6.99;62.28;96473.84;5081409;28;20051;-66
2021/04/25 04:48:40;;;;;;;27.00;16.13;;;;;;;7.00;62.69;96480.91;5082180;28;20052;-65
2021/04/25 04:51:06;;;;;;;26.23;16.35;;;;;;;6.95;62.67;96478.25;5081671;28;20628;-66
2021/04/25 04:53:32;;;;;;;29.08;16.05;;;;;;;6.94;62.79;96482.06;5082047;28;20135;-66
2021/04/25 04:55:58;;;;;;;23.67;15.65;;;;;;;6.93;62.23;96490.47;5082301;28;20141;-65
2021/04/25 04:58:24;;;;;;;22.98;15.52;;;;;;;6.96;62.47;96487.19;5081633;28;20607;-66
2021/04/25 05:00:50;;;;;;;25.98;15.98;;;;;;;6.96;62.15;96490.69;5081869;28;20345;-65
2021/04/25 05:03:17;;;;;;;26.25;15.80;;;;;;;6.98;62.10;96493.91;5081797;28;20056;-66
2021/04/25 05:05:43;;;;;;;24.30;15.40;;;;;;;6.95;61.98;96491.78;5081996;28;20040;-65
2021/04/25 05:08:08;;;;;;;24.77;16.13;;;;;;;6.98;62.30;96499.31;5081719;28;20044;-65
2021/04/25 05:10:34;;;;;;;31.20;16.75;;;;;;;7.00;62.22;96499.03;5081199;28;20055;-65
2021/04/25 05:13:00;;;;;;;26.02;15.75;;;;;;;7.01;62.10;96498.75;5081303;28;20054;-66
2021/04/25 05:15:26;;;;;;;28.23;16.13;;;;;;;7.05;62.37;96502.50;5081519;28;20058;-66
2021/04/25 05:17:52;;;;;;;24.42;16.40;;;;;;;7.14;62.45;96507.22;5081330;28;20082;-66
2021/04/25 05:20:19;;;;;;;24.20;15.98;;;;;;;7.16;62.36;96505.84;5080875;28;20047;-66
2021/04/25 05:22:45;;;;;;;26.27;15.50;;;;;;;7.20;62.37;96519.59;5081305;28;20048;-66
2021/04/25 05:25:12;;;;;;;22.63;15.07;;;;;;;7.20;62.07;96516.91;5080989;28;20051;-65
2021/04/25 05:27:38;;;;;;;23.08;16.17;;;;;;;7.25;62.10;96524.94;5081194;28;20052;-66
2021/04/25 05:30:05;;;;;;;26.25;16.45;;;;;;;7.24;62.07;96523.34;5081203;28;20040;-65
2021/04/25 05:32:31;;;;;;;26.60;16.02;;;;;;;7.24;61.81;96523.34;5081180;28;20056;-66
2021/04/25 05:34:57;;;;;;;24.70;15.50;;;;;;;7.29;61.99;96524.06;5080964;28;20051;-66
2021/04/25 05:37:23;;;;;;;24.75;16.80;;;;;;;7.36;62.24;96531.84;5081031;28;20068;-65
2021/04/25 05:39:49;;;;;;;24.40;16.15;;;;;;;7.40;62.39;96527.44;5081021;28;20097;-65
2021/04/25 05:42:15;;;;;;;23.50;15.57;;;;;;;7.39;62.12;96535.88;5081037;28;20582;-66
2021/04/25 05:44:41;;;;;;;25.80;16.05;;;;;;;7.39;61.76;96542.09;5081144;28;20580;-65
2021/04/25 05:47:07;;;;;;;23.48;15.80;;;;;;;7.40;61.21;96537.47;5081265;28;20048;-65
2021/04/25 05:49:33;;;;;;;25.52;16.38;;;;;;;7.48;61.65;96537.63;5080498;28;20040;-65
2021/04/25 05:51:59;;;;;;;27.05;16.63;;;;;;;7.48;61.62;96537.63;5080436;28;20074;-66
2021/04/25 05:54:26;;;;;;;26.33;16.33;;;;;;;7.55;61.53;96546.19;5080691;28;20044;-66
2021/04/25 05:56:52;;;;;;;28.25;15.98;;;;;;;7.61;61.56;96555.03;5080526;28;20055;-65
2021/04/25 05:59:18;;;;;;;27.35;17.00;;;;;;;7.66;61.04;96548.75;5080521;28;20072;-65
2021/04/25 06:01:44;;;;;;;25.00;15.52;;;;;;;7.68;60.13;96552.78;5080418;28;20052;-65
2021/04/25 06:04:10;;;;;;;26.85;16.00;;;;;;;7.72;60.54;96550.28;5080381;28;20595;-65
2021/04/25 06:06:36;;;;;;;23.27;15.52;;;;;;;7.78;60.08;96565.38;5080254;28;20044;-65
2021/04/25 06:09:03;;;;;;;25.10;16.02;;;;;;;7.84;60.23;96566.91;5080388;28;20082;-65
2021/04/25 06:11:30;;;;;;;23.38;15.82;;;;;;;7.87;60.34;96569.03;5079451;28;20044;-66
2021/04/25 06:13:56;;;;;;;27.25;16.55;;;;;;;7.91;59.90;96563.81;5079922;28;20044;-66
2021/04/25 06:16:22;;;;;;;22.83;15.68;;;;;;;7.93;59.29;96562.41;5080142;28;20105;-65
2021/04/25 06:18:48;;;;;;;26.83;16.50;;;;;;;7.96;59.48;96561.03;5080027;28;20488;-65
2021/04/25 06:21:14;;;;;;;25.85;16.42;;;;;;;8.01;59.78;96555.53;5080073;28;20076;-66
2021/04/25 06:23:40;;;;;;;26.17;16.08;;;;;;;8.06;59.17;96561.66;5080048;28;20044;-65
2021/04/25 06:26:06;;;;;;;26.58;16.10;;;;;;;8.16;58.96;96565.31;5080115;28;20036;-66
2021/04/25 06:28:33;;;;;;;24.27;15.82;;;;;;;8.23;59.21;96568.44;5080114;28;20048;-66
2021/04/25 06:31:12;;;;;;;24.90;15.43;;;;;;;8.31;58.90;96568.56;5080223;28;20135;-66
2021/04/25 06:33:39;;;;;;;26.60;15.97;;;;;;;8.43;59.18;96554.56;5080113;28;20131;-66
2021/04/25 06:36:05;;;;;;;26.75;15.43;;;;;;;8.51;58.60;96562.03;5080088;28;20572;-65
2021/04/25 06:38:31;;;;;;;25.08;15.85;;;;;;;8.60;58.52;96560.19;5079805;28;20542;-66
2021/04/25 06:40:57;;;;;;;23.83;15.63;;;;;;;8.74;58.49;96560.22;5080148;28;20043;-66
2021/04/25 06:43:23;;;;;;;24.95;15.50;;;;;;;8.80;58.68;96563.63;5080177;28;20434;-66
2021/04/25 06:45:49;;;;;;;25.85;15.50;;;;;;;8.84;57.68;96578.22;5080060;28;20097;-66
2021/04/25 06:48:16;;;;;;;25.90;16.73;;;;;;;8.90;58.61;96574.31;5080059;28;20036;-66
2021/04/25 06:50:42;;;;;;;25.20;16.38;;;;;;;8.98;58.02;96570.06;5079579;28;20526;-66
2021/04/25 06:53:09;;;;;;;24.77;15.73;;;;;;;9.07;58.00;96569.06;5079777;28;20052;-66
2021/04/25 06:55:35;;;;;;;25.52;15.40;;;;;;;9.14;57.32;96574.91;5079763;28;20048;-66
2021/04/25 06:58:01;;;;;;;26.15;16.25;;;;;;;9.17;57.16;96583.56;5079454;28;20078;-66
2021/04/25 07:00:27;;;;;;;24.05;15.80;;;;;;;9.25;57.43;96575.50;5079809;28;20721;-65
2021/04/25 07:02:55;;;;;;;24.40;14.98;;;;;;;9.18;55.50;96568.84;5079644;28;20040;-66
2021/04/25 07:05:21;;;;;;;24.95;15.25;;;;;;;9.15;55.94;96565.66;5079179;28;20068;-66
2021/04/25 07:07:47;;;;;;;24.05;15.80;;;;;;;9.20;55.58;96567.47;5079782;28;20044;-66
2021/04/25 07:10:13;;;;;;;24.75;15.63;;;;;;;9.11;55.82;96572.78;5079193;28;20655;-65
2021/04/25 07:12:39;;;;;;;24.30;15.20;;;;;;;9.15;56.51;96579.22;5079178;28;20535;-65
2021/04/25 07:15:07;;;;;;;23.33;14.85;;;;;;;9.28;56.60;96585.75;5079839;28;20225;-65
2021/04/25 07:17:34;;;;;;;27.25;15.52;;;;;;;9.46;57.15;96578.59;5079751;28;20044;-66
2021/04/25 07:20:01;;;;;;;23.90;14.93;;;;;;;9.55;56.88;96579.50;5079880;28;20044;-65
2021/04/25 07:22:27;;;;;;;22.67;15.27;;;;;;;9.72;57.03;96583.47;5081800;28;20150;-65
2021/04/25 07:24:53;;;;;;;23.55;15.25;;;;;;;9.82;56.02;96577.81;5083763;28;20055;-66
2021/04/25 07:27:25;;;;;;;22.85;15.55;;;;;;;9.97;55.46;96590.22;5083125;28;20090;-66
2021/04/25 07:29:51;;;;;;;21.95;15.30;;;;;;;10.15;56.38;96595.50;5083544;28;20105;-65
2021/04/25 07:32:18;;;;;;;23.92;14.70;;;;;;;10.26;54.42;96590.63;5083350;28;20528;-66
2021/04/25 07:34:44;;;;;;;24.60;15.57;;;;;;;10.24;54.49;96590.16;5083156;28;20051;-65
2021/04/25 07:37:11;;;;;;;20.90;14.48;;;;;;;10.31;54.49;96592.44;5083291;28;20043;-65
2021/04/25 07:39:38;;;;;;;25.00;15.13;;;;;;;10.65;53.79;96584.47;5083286;28;20036;-65
2021/04/25 07:42:06;;;;;;;19.55;13.52;;;;;;;11.26;51.66;96586.63;5083377;28;20048;-66
2021/04/25 07:44:32;;;;;;;24.05;14.40;;;;;;;12.07;52.40;96589.66;5083143;28;20044;-65
2021/04/25 07:46:58;;;;;;;22.80;12.88;;;;;;;13.10;46.74;96584.28;5083486;28;20071;-65
2021/04/25 07:49:24;;;;;;;23.02;13.57;;;;;;;13.94;46.27;96588.00;5082859;28;20036;-65
2021/04/25 07:51:50;;;;;;;24.05;13.35;;;;;;;14.84;42.95;96587.34;5082874;28;20044;-65
2021/04/25 07:54:17;;;;;;;22.08;13.63;;;;;;;15.74;40.30;96586.38;5083230;28;20062;-65
2021/04/25 07:56:43;;;;;;;16.95;11.88;;;;;;;16.44;39.08;96581.38;5083152;28;20106;-66
2021/04/25 07:59:09;;;;;;;20.60;13.50;;;;;;;17.04;36.85;96581.41;5083062;28;20040;-65
2021/04/25 08:01:35;;;;;;;19.40;13.23;;;;;;;17.57;37.66;96581.13;5082918;28;20524;-65
2021/04/25 08:04:01;;;;;;;16.73;12.13;;;;;;;18.23;36.22;96572.78;5082518;28;20113;-65
2021/04/25 08:06:27;;;;;;;19.40;11.60;;;;;;;18.56;35.37;96588.03;5082489;28;20056;-65
2021/04/25 08:08:54;;;;;;;19.75;12.57;;;;;;;18.89;31.73;96590.25;5082515;28;20078;-66
2021/04/25 08:11:21;;;;;;;19.13;12.50;;;;;;;19.15;31.75;96583.22;5082545;28;20079;-66
2021/04/25 08:13:48;;;;;;;19.23;12.15;;;;;;;18.93;30.53;96585.59;5082659;28;20047;-65
2021/04/25 08:16:14;;;;;;;15.68;12.20;;;;;;;19.23;33.61;96582.19;5081893;28;20055;-65
2021/04/25 08:18:40;;;;;;;18.10;12.38;;;;;;;19.55;33.32;96589.03;5082091;28;20048;-65
2021/04/25 08:21:07;;;;;;;18.83;11.95;;;;;;;19.60;30.46;96590.72;5082638;28;20048;-65
2021/04/25 08:23:33;;;;;;;15.52;11.02;;;;;;;19.96;29.51;96586.50;5082325;28;20048;-65
2021/04/25 08:25:59;;;;;;;17.63;11.98;;;;;;;20.12;28.45;96588.31;5082040;28;20648;-66
2021/04/25 08:28:25;;;;;;;20.27;11.38;;;;;;;20.32;29.91;96585.03;5081850;27;20779;-66
2021/04/25 08:30:52;;;;;;;17.15;10.95;;;;;;;20.83;28.42;96583.69;5082278;28;20052;-66
2021/04/25 08:33:18;;;;;;;18.27;10.20;;;;;;;20.91;27.27;96590.88;5081481;28;20056;-66
2021/04/25 08:35:44;;;;;;;18.17;10.88;;;;;;;20.89;26.68;96587.69;5082282;28;20048;-66
2021/04/25 08:38:10;;;;;;;15.35;11.57;;;;;;;21.40;29.09;96581.47;5082145;28;20071;-66
2021/04/25 08:40:36;;;;;;;14.75;9.52;;;;;;;21.46;25.38;96581.94;5081853;28;20047;-66
2021/04/25 08:43:03;;;;;;;13.98;10.13;;;;;;;21.61;24.59;96589.97;5082020;28;20052;-66
2021/04/25 08:45:30;;;;;;;17.52;9.60;;;;;;;21.89;24.36;96583.81;5081550;28;20044;-66
2021/04/25 08:47:58;;;;;;;14.20;10.32;;;;;;;21.91;26.66;96580.66;5082656;28;20040;-73
2021/04/25 08:50:26;;;;;;;16.27;11.05;;;;;;;22.01;26.91;96579.13;5091176;28;20151;-73
2021/04/25 08:52:52;;;;;;;15.07;9.85;;;;;;;22.37;26.87;96574.59;5072349;28;20040;-74
2021/04/25 08:55:18;;;;;;;17.08;10.15;;;;;;;22.75;27.92;96587.03;5087227;28;20048;-74
2021/04/25 08:57:44;;;;;;;16.73;11.02;;;;;;;22.98;25.41;96578.41;5090066;28;20125;-75
2021/04/25 09:00:12;;;;;;;13.13;9.95;;;;;;;22.75;24.63;96575.91;5088939;28;20409;-73
2021/04/25 09:02:38;;;;;;;17.95;10.90;;;;;;;22.69;26.19;96579.47;5089698;28;20485;-73
2021/04/25 09:05:05;;;;;;;16.27;10.75;;;;;;;22.96;27.63;96579.97;5089317;28;20048;-73
2021/04/25 09:07:31;;;;;;;16.70;10.00;;;;;;;23.23;25.16;96569.31;5089571;28;20044;-74
2021/04/25 09:10:01;;;;;;;18.88;11.23;;;;;;;23.50;26.04;96576.09;5089735;28;20052;-73
2021/04/25 09:12:33;;;;;;;16.40;10.00;;;;;;;23.41;23.76;96570.13;5088843;28;20123;-74
2021/04/25 09:15:00;;;;;;;14.20;9.13;;;;;;;23.61;24.88;96567.75;5090045;28;20054;-74
2021/04/25 09:17:27;;;;;;;14.60;9.10;;;;;;;23.48;24.04;96577.66;5089013;28;20815;-74
2021/04/25 09:19:57;;;;;;;15.30;8.73;;;;;;;23.24;23.46;96568.13;5089232;28;20510;-75
2021/04/25 09:22:24;;;;;;;16.48;9.25;;;;;;;23.27;23.96;96575.66;5072443;28;20037;-73
2021/04/25 09:25:06;;;;;;;13.60;8.57;;;;;;;23.17;24.25;96571.69;5068892;28;20055;-73
2021/04/25 09:27:32;;;;;;;15.15;8.80;;;;;;;22.99;25.77;96574.44;5068713;28;20052;-73
2021/04/25 09:29:58;;;;;;;12.70;8.35;;;;;;;23.30;25.07;96563.78;5068301;28;20059;-73
2021/04/25 09:32:26;;;;;;;16.83;9.73;;;;;;;23.07;23.32;96566.91;5068801;28;20045;-73
2021/04/25 09:35:07;;;;;;;14.73;8.68;;;;;;;22.63;24.33;96565.19;5068251;28;20045;-72
2021/04/25 09:37:35;;;;;;;11.32;8.68;;;;;;;22.28;26.10;96565.84;5068698;28;20059;-72
2021/04/25 09:40:04;;;;;;;13.10;8.63;;;;;;;22.05;25.51;96566.88;5067468;28;20049;-70
2021/04/25 09:42:31;;;;;;;13.98;8.48;;;;;;;22.30;27.33;96571.81;5068720;28;20052;-73
2021/04/25 09:44:58;;;;;;;13.45;8.30;;;;;;;21.81;25.36;96571.09;5067577;28;20052;-73
2021/04/25 09:47:31;;;;;;;14.52;9.00;;;;;;;20.94;25.63;96562.44;5067822;28;20063;-72
2021/04/25 09:50:00;;;;;;;15.00;9.02;;;;;;;20.72;28.28;96566.13;5068655;28;20053;-72
2021/04/25 09:52:37;;;;;;;14.93;8.88;;;;;;;20.75;26.93;96560.66;5084420;28;20119;-73
2021/04/25 09:55:18;;;;;;;13.98;7.93;;;;;;;20.73;27.49;96562.22;5088627;28;20123;-72
2021/04/25 09:57:45;;;;;;;14.05;8.32;;;;;;;20.57;28.00;96566.00;5087837;28;20510;-73
2021/04/25 10:00:12;;;;;;;12.95;8.10;;;;;;;20.64;27.82;96559.75;5088040;28;20067;-72
2021/04/25 10:02:59;;;;;;;12.90;8.43;;;;;;;20.75;28.04;96555.13;5088138;28;20059;-73
2021/04/25 10:05:28;;;;;;;12.25;8.15;;;;;;;20.96;30.50;96545.44;5089221;28;20506;-73
2021/04/25 10:07:54;;;;;;;14.18;7.85;;;;;;;21.09;28.62;96555.06;5091693;28;20040;-73
2021/04/25 10:10:20;;;;;;;15.05;9.05;;;;;;;21.13;27.66;96561.41;5089905;28;20040;-73
2021/04/25 10:12:47;;;;;;;15.27;9.52;;;;;;;20.47;27.28;96555.59;5091571;28;20058;-73
2021/04/25 10:15:14;;;;;;;12.15;9.05;;;;;;;20.08;31.47;96553.09;5089932;28;20048;-73
2021/04/25 10:17:44;;;;;;;17.83;9.65;;;;;;;19.91;28.53;96561.97;5091348;28;20110;-72
2021/04/25 10:20:13;;;;;;;14.13;8.85;;;;;;;19.91;28.98;96556.44;5090204;28;20121;-72
2021/04/25 10:22:44;;;;;;;13.70;8.90;;;;;;;20.00;29.99;96556.97;5090662;28;20040;-73
2021/04/25 10:25:13;;;;;;;15.10;8.50;;;;;;;20.07;28.77;96559.81;5090429;28;20583;-73
2021/04/25 10:27:44;;;;;;;12.90;8.60;;;;;;;20.09;29.88;96551.13;5085909;28;20056;-68
2021/04/25 10:30:12;;;;;;;14.13;8.20;;;;;;;20.31;28.52;96546.69;5086966;28;20044;-68
2021/04/25 10:32:42;;;;;;;12.27;8.35;;;;;;;20.34;29.41;96556.97;5068561;28;20506;-68
2021/04/25 10:35:16;;;;;;;11.48;8.00;;;;;;;20.11;29.20;96548.00;5087397;28;20061;-69
2021/04/25 10:37:45;;;;;;;12.43;8.25;;;;;;;20.02;27.88;96551.84;5086486;28;20055;-68
2021/04/25 10:40:21;;;;;;;14.98;9.00;;;;;;;19.83;27.34;96542.88;5086480;28;20418;-68
2021/04/25 10:42:56;;;;;;;15.45;9.13;;;;;;;19.88;31.04;96546.13;5087261;28;20078;-68
2021/04/25 10:45:29;;;;;;;13.77;8.57;;;;;;;19.92;28.22;96541.44;5086321;28;20097;-69
2021/04/25 10:48:21;;;;;;;14.02;8.63;;;;;;;19.89;30.80;96544.97;5087623;28;20075;-69
2021/04/25 10:50:49;;;;;;;13.53;8.00;;;;;;;19.79;28.71;96540.09;5084077;28;20052;-68
2021/04/25 10:53:28;;;;;;;12.35;7.05;;;;;;;19.83;28.59;96540.91;5066987;28;20295;-68
2021/04/25 10:56:31;;;;;;;13.43;8.13;;;;;;;20.22;29.48;96543.41;5066786;28;20434;-69
2021/04/25 10:59:26;;;;;;;12.27;7.30;;;;;;;20.08;27.29;96533.75;5070466;28;20055;-68
2021/04/25 11:01:52;;;;;;;11.38;6.68;;;;;;;19.68;27.23;96536.34;5071481;28;20049;-70
2021/04/25 11:05:03;;;;;;;11.70;7.05;;;;;;;18.39;27.49;96538.84;5070172;28;20052;-69
2021/04/25 11:07:43;;;;;;;9.30;6.10;;;;;;;18.67;29.95;96544.88;5070708;28;20036;-68
2021/04/25 11:10:11;;;;;;;11.60;6.90;;;;;;;19.03;29.04;96535.31;5070740;28;20053;-68
2021/04/25 11:12:45;;;;;;;10.98;6.25;;;;;;;19.33;29.54;96533.84;5070219;28;20040;-68
2021/04/25 11:15:48;;;;;;;12.05;6.63;;;;;;;19.65;28.46;96531.59;5071159;28;20144;-69
2021/04/25 11:18:43;;;;;;;11.87;6.40;;;;;;;19.78;26.44;96536.53;5070421;28;20080;-69
2021/04/25 11:21:50;;;;;;;15.18;6.75;;;;;;;19.79;25.43;96532.59;5070123;28;20325;-68
2021/04/25 11:24:34;;;;;;;10.80;5.72;;;;;;;19.82;25.28;96539.31;5070782;28;20049;-68
2021/04/25 11:27:03;;;;;;;10.82;6.07;;;;;;;20.04;25.64;96549.50;5070407;28;20147;-68
2021/04/25 11:29:52;;;;;;;8.98;5.70;;;;;;;20.00;25.49;96543.13;5069886;28;20048;-68